sensor_id;sensor_type;location;lat;lon;timestamp;P1;durP1;ratioP1;P2;durP2;ratioP2
53871;SDS011;39787;53.174;5.798;2023-07-29T00:00:45;9.15;;;3.53;;
53871;SDS011;39787;53.174;5.798;2023-07-29T00:01:45;7.60;;;3.50;;
53871;SDS011;39787;53.174;5.798;2023-07-29T00:02:46;6.80;;;3.70;;
53871;SDS011;39787;53.174;5.798;2023-07-29T00:03:46;5.20;;;3.80;;
53871;SDS011;39787;53.174;5.798;2023-07-29T00:04:47;6.70;;;3.57;;
53871;SDS011;39787;53.174;5.798;2023-07-29T00:05:47;7.50;;;3.57;;
53871;SDS011;39787;53.174;5.798;2023-07-29T00:06:48;8.43;;;4.00;;
53871;SDS011;39787;53.174;5.798;2023-07-29T00:07:49;8.87;;;3.60;;
53871;SDS011;39787;53.174;5.798;2023-07-29T00:08:49;8.57;;;4.57;;
53871;SDS011;39787;53.174;5.798;2023-07-29T00:09:50;12.93;;;4.40;;
53871;SDS011;39787;53.174;5.798;2023-07-29T00:10:50;7.00;;;4.57;;
53871;SDS011;39787;53.174;5.798;2023-07-29T00:11:51;8.70;;;5.27;;
53871;SDS011;39787;53.174;5.798;2023-07-29T00:12:51;7.33;;;3.90;;
53871;SDS011;39787;53.174;5.798;2023-07-29T00:13:52;8.30;;;4.40;;
53871;SDS011;39787;53.174;5.798;2023-07-29T00:14:52;5.83;;;4.40;;
53871;SDS011;39787;53.174;5.798;2023-07-29T00:15:53;12.27;;;4.70;;
53871;SDS011;39787;53.174;5.798;2023-07-29T00:17:55;13.77;;;6.00;;
53871;SDS011;39787;53.174;5.798;2023-07-29T00:18:55;9.77;;;4.20;;
53871;SDS011;39787;53.174;5.798;2023-07-29T00:19:56;6.80;;;4.33;;
53871;SDS011;39787;53.174;5.798;2023-07-29T00:20:56;7.53;;;4.17;;
53871;SDS011;39787;53.174;5.798;2023-07-29T00:21:56;13.17;;;4.87;;
53871;SDS011;39787;53.174;5.798;2023-07-29T00:22:57;9.50;;;4.70;;
53871;SDS011;39787;53.174;5.798;2023-07-29T00:23:57;11.50;;;5.37;;
53871;SDS011;39787;53.174;5.798;2023-07-29T00:24:58;11.73;;;4.83;;
53871;SDS011;39787;53.174;5.798;2023-07-29T00:25:58;10.93;;;5.57;;
53871;SDS011;39787;53.174;5.798;2023-07-29T00:26:59;6.70;;;4.80;;
53871;SDS011;39787;53.174;5.798;2023-07-29T00:27:59;8.63;;;5.03;;
53871;SDS011;39787;53.174;5.798;2023-07-29T00:29:00;8.10;;;5.00;;
53871;SDS011;39787;53.174;5.798;2023-07-29T00:30:00;8.33;;;5.03;;
53871;SDS011;39787;53.174;5.798;2023-07-29T00:31:01;5.83;;;5.10;;
53871;SDS011;39787;53.174;5.798;2023-07-29T00:32:02;8.73;;;4.65;;
53871;SDS011;39787;53.174;5.798;2023-07-29T00:33:03;14.25;;;5.18;;
53871;SDS011;39787;53.174;5.798;2023-07-29T00:34:03;10.87;;;5.10;;
53871;SDS011;39787;53.174;5.798;2023-07-29T00:35:04;7.80;;;5.13;;
53871;SDS011;39787;53.174;5.798;2023-07-29T00:36:05;9.80;;;5.30;;
53871;SDS011;39787;53.174;5.798;2023-07-29T00:37:05;11.50;;;5.07;;
53871;SDS011;39787;53.174;5.798;2023-07-29T00:38:06;8.67;;;4.67;;
53871;SDS011;39787;53.174;5.798;2023-07-29T00:39:06;11.27;;;5.10;;
53871;SDS011;39787;53.174;5.798;2023-07-29T00:40:25;9.73;;;4.90;;
53871;SDS011;39787;53.174;5.798;2023-07-29T00:41:28;12.00;;;4.77;;
53871;SDS011;39787;53.174;5.798;2023-07-29T00:42:29;9.37;;;5.20;;
53871;SDS011;39787;53.174;5.798;2023-07-29T00:43:29;8.00;;;4.70;;
53871;SDS011;39787;53.174;5.798;2023-07-29T00:44:30;6.03;;;4.83;;
53871;SDS011;39787;53.174;5.798;2023-07-29T00:45:30;16.30;;;5.27;;
53871;SDS011;39787;53.174;5.798;2023-07-29T00:47:34;12.77;;;5.50;;
53871;SDS011;39787;53.174;5.798;2023-07-29T00:48:34;9.10;;;4.93;;
53871;SDS011;39787;53.174;5.798;2023-07-29T00:49:35;10.43;;;4.88;;
53871;SDS011;39787;53.174;5.798;2023-07-29T00:50:36;10.50;;;4.97;;
53871;SDS011;39787;53.174;5.798;2023-07-29T00:51:37;9.32;;;4.68;;
53871;SDS011;39787;53.174;5.798;2023-07-29T00:52:37;8.30;;;5.50;;
53871;SDS011;39787;53.174;5.798;2023-07-29T00:53:38;8.70;;;5.20;;
53871;SDS011;39787;53.174;5.798;2023-07-29T00:54:39;10.57;;;5.03;;
53871;SDS011;39787;53.174;5.798;2023-07-29T00:55:40;17.20;;;5.43;;
53871;SDS011;39787;53.174;5.798;2023-07-29T00:56:41;10.70;;;4.72;;
53871;SDS011;39787;53.174;5.798;2023-07-29T00:57:42;5.70;;;4.50;;
53871;SDS011;39787;53.174;5.798;2023-07-29T00:58:42;10.07;;;5.00;;
53871;SDS011;39787;53.174;5.798;2023-07-29T00:59:44;10.52;;;5.10;;
53871;SDS011;39787;53.174;5.798;2023-07-29T01:00:44;7.23;;;4.57;;
53871;SDS011;39787;53.174;5.798;2023-07-29T01:01:45;10.20;;;4.47;;
53871;SDS011;39787;53.174;5.798;2023-07-29T01:02:45;7.40;;;4.67;;
53871;SDS011;39787;53.174;5.798;2023-07-29T01:03:46;7.37;;;4.47;;
53871;SDS011;39787;53.174;5.798;2023-07-29T01:04:51;6.13;;;4.30;;
53871;SDS011;39787;53.174;5.798;2023-07-29T01:07:14;12.40;;;5.22;;
53871;SDS011;39787;53.174;5.798;2023-07-29T01:08:21;8.35;;;5.15;;
53871;SDS011;39787;53.174;5.798;2023-07-29T01:10:40;8.60;;;5.03;;
53871;SDS011;39787;53.174;5.798;2023-07-29T01:14:34;12.68;;;5.60;;
53871;SDS011;39787;53.174;5.798;2023-07-29T01:15:54;13.60;;;5.32;;
53871;SDS011;39787;53.174;5.798;2023-07-29T01:17:00;8.77;;;5.43;;
53871;SDS011;39787;53.174;5.798;2023-07-29T01:18:08;11.13;;;4.57;;
53871;SDS011;39787;53.174;5.798;2023-07-29T01:19:19;8.93;;;5.63;;
53871;SDS011;39787;53.174;5.798;2023-07-29T01:20:40;10.30;;;5.05;;
53871;SDS011;39787;53.174;5.798;2023-07-29T01:21:43;7.60;;;5.40;;
53871;SDS011;39787;53.174;5.798;2023-07-29T01:22:44;9.93;;;5.37;;
53871;SDS011;39787;53.174;5.798;2023-07-29T01:23:44;9.87;;;5.43;;
53871;SDS011;39787;53.174;5.798;2023-07-29T01:24:45;10.87;;;5.60;;
53871;SDS011;39787;53.174;5.798;2023-07-29T01:25:45;10.40;;;5.53;;
53871;SDS011;39787;53.174;5.798;2023-07-29T01:26:46;5.77;;;5.13;;
53871;SDS011;39787;53.174;5.798;2023-07-29T01:27:48;14.60;;;6.00;;
53871;SDS011;39787;53.174;5.798;2023-07-29T01:28:50;10.68;;;5.82;;
53871;SDS011;39787;53.174;5.798;2023-07-29T01:29:50;9.97;;;5.10;;
53871;SDS011;39787;53.174;5.798;2023-07-29T01:30:52;16.27;;;5.83;;
53871;SDS011;39787;53.174;5.798;2023-07-29T01:32:04;13.48;;;5.40;;
53871;SDS011;39787;53.174;5.798;2023-07-29T01:33:20;6.93;;;4.97;;
53871;SDS011;39787;53.174;5.798;2023-07-29T01:34:26;7.57;;;5.55;;
53871;SDS011;39787;53.174;5.798;2023-07-29T01:35:52;9.30;;;5.43;;
53871;SDS011;39787;53.174;5.798;2023-07-29T01:37:03;9.38;;;5.40;;
53871;SDS011;39787;53.174;5.798;2023-07-29T01:38:09;10.55;;;5.50;;
53871;SDS011;39787;53.174;5.798;2023-07-29T01:39:20;11.40;;;5.25;;
53871;SDS011;39787;53.174;5.798;2023-07-29T01:40:23;9.05;;;5.05;;
53871;SDS011;39787;53.174;5.798;2023-07-29T01:41:27;8.60;;;5.13;;
53871;SDS011;39787;53.174;5.798;2023-07-29T01:42:28;8.57;;;5.38;;
53871;SDS011;39787;53.174;5.798;2023-07-29T01:43:29;8.80;;;5.18;;
53871;SDS011;39787;53.174;5.798;2023-07-29T01:44:30;9.95;;;4.35;;
53871;SDS011;39787;53.174;5.798;2023-07-29T01:46:37;10.07;;;4.93;;
53871;SDS011;39787;53.174;5.798;2023-07-29T01:47:38;14.35;;;5.00;;
53871;SDS011;39787;53.174;5.798;2023-07-29T01:48:38;8.40;;;4.40;;
53871;SDS011;39787;53.174;5.798;2023-07-29T01:49:39;8.35;;;5.15;;
53871;SDS011;39787;53.174;5.798;2023-07-29T01:50:40;8.97;;;5.17;;
53871;SDS011;39787;53.174;5.798;2023-07-29T01:51:40;7.67;;;5.07;;
53871;SDS011;39787;53.174;5.798;2023-07-29T01:52:41;10.30;;;4.83;;
53871;SDS011;39787;53.174;5.798;2023-07-29T01:53:41;10.60;;;4.90;;
53871;SDS011;39787;53.174;5.798;2023-07-29T01:54:42;8.83;;;4.80;;
53871;SDS011;39787;53.174;5.798;2023-07-29T01:55:43;6.87;;;4.03;;
53871;SDS011;39787;53.174;5.798;2023-07-29T01:56:44;9.85;;;4.13;;
53871;SDS011;39787;53.174;5.798;2023-07-29T01:57:45;8.30;;;4.03;;
53871;SDS011;39787;53.174;5.798;2023-07-29T01:58:45;6.60;;;4.20;;
53871;SDS011;39787;53.174;5.798;2023-07-29T01:59:46;13.63;;;4.40;;
53871;SDS011;39787;53.174;5.798;2023-07-29T02:00:46;12.83;;;4.27;;
53871;SDS011;39787;53.174;5.798;2023-07-29T02:01:47;7.60;;;3.90;;
53871;SDS011;39787;53.174;5.798;2023-07-29T02:02:47;6.60;;;4.07;;
53871;SDS011;39787;53.174;5.798;2023-07-29T02:03:48;13.43;;;4.90;;
53871;SDS011;39787;53.174;5.798;2023-07-29T02:04:48;5.33;;;3.73;;
53871;SDS011;39787;53.174;5.798;2023-07-29T02:05:48;8.87;;;4.00;;
53871;SDS011;39787;53.174;5.798;2023-07-29T02:06:49;7.27;;;3.63;;
53871;SDS011;39787;53.174;5.798;2023-07-29T02:07:49;8.83;;;3.23;;
53871;SDS011;39787;53.174;5.798;2023-07-29T02:08:50;8.20;;;4.03;;
53871;SDS011;39787;53.174;5.798;2023-07-29T02:09:51;6.88;;;3.95;;
53871;SDS011;39787;53.174;5.798;2023-07-29T02:10:51;5.67;;;3.50;;
53871;SDS011;39787;53.174;5.798;2023-07-29T02:11:52;7.93;;;3.57;;
53871;SDS011;39787;53.174;5.798;2023-07-29T02:12:52;11.60;;;3.97;;
53871;SDS011;39787;53.174;5.798;2023-07-29T02:13:53;7.63;;;3.97;;
53871;SDS011;39787;53.174;5.798;2023-07-29T02:14:54;11.45;;;3.78;;
53871;SDS011;39787;53.174;5.798;2023-07-29T02:15:55;8.33;;;4.73;;
53871;SDS011;39787;53.174;5.798;2023-07-29T02:16:55;8.40;;;4.07;;
53871;SDS011;39787;53.174;5.798;2023-07-29T02:17:56;10.27;;;4.63;;
53871;SDS011;39787;53.174;5.798;2023-07-29T02:18:56;9.40;;;4.20;;
53871;SDS011;39787;53.174;5.798;2023-07-29T02:19:56;8.60;;;3.83;;
53871;SDS011;39787;53.174;5.798;2023-07-29T02:20:57;8.03;;;4.10;;
53871;SDS011;39787;53.174;5.798;2023-07-29T02:21:57;10.87;;;4.30;;
53871;SDS011;39787;53.174;5.798;2023-07-29T02:22:58;13.07;;;4.50;;
53871;SDS011;39787;53.174;5.798;2023-07-29T02:23:58;12.20;;;4.07;;
53871;SDS011;39787;53.174;5.798;2023-07-29T02:24:59;15.40;;;4.47;;
53871;SDS011;39787;53.174;5.798;2023-07-29T02:25:59;8.77;;;3.60;;
53871;SDS011;39787;53.174;5.798;2023-07-29T02:27:00;7.83;;;3.80;;
53871;SDS011;39787;53.174;5.798;2023-07-29T02:28:00;8.07;;;4.37;;
53871;SDS011;39787;53.174;5.798;2023-07-29T02:29:01;7.63;;;4.67;;
53871;SDS011;39787;53.174;5.798;2023-07-29T02:30:01;10.90;;;4.40;;
53871;SDS011;39787;53.174;5.798;2023-07-29T02:31:20;10.65;;;4.47;;
53871;SDS011;39787;53.174;5.798;2023-07-29T02:32:21;15.25;;;4.07;;
53871;SDS011;39787;53.174;5.798;2023-07-29T02:33:22;11.50;;;4.17;;
53871;SDS011;39787;53.174;5.798;2023-07-29T02:34:22;10.43;;;4.30;;
53871;SDS011;39787;53.174;5.798;2023-07-29T02:35:23;10.97;;;4.53;;
53871;SDS011;39787;53.174;5.798;2023-07-29T02:36:23;9.87;;;4.43;;
53871;SDS011;39787;53.174;5.798;2023-07-29T02:37:24;9.90;;;4.20;;
53871;SDS011;39787;53.174;5.798;2023-07-29T02:38:24;12.27;;;4.47;;
53871;SDS011;39787;53.174;5.798;2023-07-29T02:39:24;11.97;;;3.80;;
53871;SDS011;39787;53.174;5.798;2023-07-29T02:40:25;9.53;;;4.50;;
53871;SDS011;39787;53.174;5.798;2023-07-29T02:41:25;13.63;;;4.60;;
53871;SDS011;39787;53.174;5.798;2023-07-29T02:42:26;9.00;;;4.33;;
53871;SDS011;39787;53.174;5.798;2023-07-29T02:43:26;10.57;;;4.27;;
53871;SDS011;39787;53.174;5.798;2023-07-29T02:44:27;7.47;;;3.83;;
53871;SDS011;39787;53.174;5.798;2023-07-29T02:45:27;9.53;;;4.00;;
53871;SDS011;39787;53.174;5.798;2023-07-29T02:46:28;9.02;;;4.00;;
53871;SDS011;39787;53.174;5.798;2023-07-29T02:47:29;10.27;;;3.70;;
53871;SDS011;39787;53.174;5.798;2023-07-29T02:48:29;10.50;;;3.67;;
53871;SDS011;39787;53.174;5.798;2023-07-29T02:49:30;7.60;;;4.00;;
53871;SDS011;39787;53.174;5.798;2023-07-29T02:50:30;7.47;;;3.77;;
53871;SDS011;39787;53.174;5.798;2023-07-29T02:51:31;7.23;;;3.77;;
53871;SDS011;39787;53.174;5.798;2023-07-29T02:52:31;12.17;;;4.00;;
53871;SDS011;39787;53.174;5.798;2023-07-29T02:53:32;10.77;;;3.77;;
53871;SDS011;39787;53.174;5.798;2023-07-29T02:54:32;11.10;;;3.77;;
53871;SDS011;39787;53.174;5.798;2023-07-29T02:55:32;5.20;;;3.63;;
53871;SDS011;39787;53.174;5.798;2023-07-29T02:56:33;9.57;;;3.77;;
53871;SDS011;39787;53.174;5.798;2023-07-29T02:57:33;5.07;;;2.80;;
53871;SDS011;39787;53.174;5.798;2023-07-29T02:58:34;12.77;;;3.60;;
53871;SDS011;39787;53.174;5.798;2023-07-29T02:59:35;7.60;;;3.50;;
53871;SDS011;39787;53.174;5.798;2023-07-29T03:00:36;7.57;;;3.93;;
53871;SDS011;39787;53.174;5.798;2023-07-29T03:01:36;11.53;;;3.10;;
53871;SDS011;39787;53.174;5.798;2023-07-29T03:02:37;7.87;;;3.47;;
53871;SDS011;39787;53.174;5.798;2023-07-29T03:03:37;8.20;;;3.00;;
53871;SDS011;39787;53.174;5.798;2023-07-29T03:04:38;11.98;;;4.35;;
53871;SDS011;39787;53.174;5.798;2023-07-29T03:05:39;11.97;;;3.33;;
53871;SDS011;39787;53.174;5.798;2023-07-29T03:06:39;8.77;;;3.50;;
53871;SDS011;39787;53.174;5.798;2023-07-29T03:07:40;6.00;;;2.70;;
53871;SDS011;39787;53.174;5.798;2023-07-29T03:08:40;9.77;;;3.70;;
53871;SDS011;39787;53.174;5.798;2023-07-29T03:09:41;5.13;;;2.60;;
53871;SDS011;39787;53.174;5.798;2023-07-29T03:10:41;7.43;;;3.53;;
53871;SDS011;39787;53.174;5.798;2023-07-29T03:11:42;8.43;;;3.17;;
53871;SDS011;39787;53.174;5.798;2023-07-29T03:12:42;8.73;;;3.77;;
53871;SDS011;39787;53.174;5.798;2023-07-29T03:13:43;7.43;;;2.90;;
53871;SDS011;39787;53.174;5.798;2023-07-29T03:14:47;8.18;;;2.97;;
53871;SDS011;39787;53.174;5.798;2023-07-29T03:15:48;18.52;;;3.60;;
53871;SDS011;39787;53.174;5.798;2023-07-29T03:16:48;7.30;;;3.20;;
53871;SDS011;39787;53.174;5.798;2023-07-29T03:17:49;7.90;;;3.27;;
53871;SDS011;39787;53.174;5.798;2023-07-29T03:18:49;10.90;;;3.50;;
53871;SDS011;39787;53.174;5.798;2023-07-29T03:19:49;9.40;;;3.03;;
53871;SDS011;39787;53.174;5.798;2023-07-29T03:20:50;8.87;;;3.27;;
53871;SDS011;39787;53.174;5.798;2023-07-29T03:21:50;6.63;;;3.47;;
53871;SDS011;39787;53.174;5.798;2023-07-29T03:22:51;7.13;;;3.47;;
53871;SDS011;39787;53.174;5.798;2023-07-29T03:23:51;12.67;;;3.50;;
53871;SDS011;39787;53.174;5.798;2023-07-29T03:24:52;8.83;;;3.67;;
53871;SDS011;39787;53.174;5.798;2023-07-29T03:25:54;8.00;;;3.47;;
53871;SDS011;39787;53.174;5.798;2023-07-29T03:26:55;10.32;;;3.53;;
53871;SDS011;39787;53.174;5.798;2023-07-29T03:27:56;7.83;;;3.23;;
53871;SDS011;39787;53.174;5.798;2023-07-29T03:28:56;6.50;;;3.47;;
53871;SDS011;39787;53.174;5.798;2023-07-29T03:29:57;6.27;;;3.33;;
53871;SDS011;39787;53.174;5.798;2023-07-29T03:30:57;9.07;;;3.43;;
53871;SDS011;39787;53.174;5.798;2023-07-29T03:31:59;6.65;;;3.47;;
53871;SDS011;39787;53.174;5.798;2023-07-29T03:32:59;11.60;;;3.57;;
53871;SDS011;39787;53.174;5.798;2023-07-29T03:33:59;7.40;;;3.53;;
53871;SDS011;39787;53.174;5.798;2023-07-29T03:35:00;12.13;;;3.67;;
53871;SDS011;39787;53.174;5.798;2023-07-29T03:36:00;8.40;;;3.50;;
53871;SDS011;39787;53.174;5.798;2023-07-29T03:37:01;6.10;;;3.30;;
53871;SDS011;39787;53.174;5.798;2023-07-29T03:38:01;7.37;;;3.30;;
53871;SDS011;39787;53.174;5.798;2023-07-29T03:39:02;10.00;;;3.87;;
53871;SDS011;39787;53.174;5.798;2023-07-29T03:40:02;8.07;;;3.43;;
53871;SDS011;39787;53.174;5.798;2023-07-29T03:41:03;7.85;;;3.45;;
53871;SDS011;39787;53.174;5.798;2023-07-29T03:42:04;9.07;;;3.40;;
53871;SDS011;39787;53.174;5.798;2023-07-29T03:43:05;6.65;;;3.35;;
53871;SDS011;39787;53.174;5.798;2023-07-29T03:44:05;10.23;;;3.53;;
53871;SDS011;39787;53.174;5.798;2023-07-29T03:45:06;15.17;;;3.47;;
53871;SDS011;39787;53.174;5.798;2023-07-29T03:46:06;10.20;;;3.80;;
53871;SDS011;39787;53.174;5.798;2023-07-29T03:47:07;12.57;;;3.67;;
53871;SDS011;39787;53.174;5.798;2023-07-29T03:48:07;13.43;;;3.27;;
53871;SDS011;39787;53.174;5.798;2023-07-29T03:49:08;7.67;;;3.30;;
53871;SDS011;39787;53.174;5.798;2023-07-29T03:50:08;7.93;;;3.43;;
53871;SDS011;39787;53.174;5.798;2023-07-29T03:51:09;12.18;;;3.92;;
53871;SDS011;39787;53.174;5.798;2023-07-29T03:52:09;10.90;;;3.20;;
53871;SDS011;39787;53.174;5.798;2023-07-29T03:53:10;7.70;;;3.10;;
53871;SDS011;39787;53.174;5.798;2023-07-29T03:54:10;6.97;;;3.00;;
53871;SDS011;39787;53.174;5.798;2023-07-29T03:55:11;8.33;;;3.40;;
53871;SDS011;39787;53.174;5.798;2023-07-29T03:56:11;11.32;;;3.60;;
53871;SDS011;39787;53.174;5.798;2023-07-29T03:57:12;14.50;;;3.43;;
53871;SDS011;39787;53.174;5.798;2023-07-29T03:58:12;8.47;;;3.50;;
53871;SDS011;39787;53.174;5.798;2023-07-29T03:59:13;8.13;;;3.67;;
53871;SDS011;39787;53.174;5.798;2023-07-29T04:00:13;12.03;;;4.13;;
53871;SDS011;39787;53.174;5.798;2023-07-29T04:01:14;7.80;;;2.92;;
53871;SDS011;39787;53.174;5.798;2023-07-29T04:02:15;5.90;;;2.50;;
53871;SDS011;39787;53.174;5.798;2023-07-29T04:03:15;6.07;;;2.47;;
53871;SDS011;39787;53.174;5.798;2023-07-29T04:04:15;8.37;;;2.80;;
53871;SDS011;39787;53.174;5.798;2023-07-29T04:05:16;12.60;;;3.53;;
53871;SDS011;39787;53.174;5.798;2023-07-29T04:06:17;10.23;;;3.55;;
53871;SDS011;39787;53.174;5.798;2023-07-29T04:07:18;8.37;;;2.80;;
53871;SDS011;39787;53.174;5.798;2023-07-29T04:08:18;7.93;;;2.87;;
53871;SDS011;39787;53.174;5.798;2023-07-29T04:09:19;6.95;;;3.35;;
53871;SDS011;39787;53.174;5.798;2023-07-29T04:10:20;6.67;;;2.80;;
53871;SDS011;39787;53.174;5.798;2023-07-29T04:11:20;6.33;;;2.77;;
53871;SDS011;39787;53.174;5.798;2023-07-29T04:12:21;8.67;;;3.00;;
53871;SDS011;39787;53.174;5.798;2023-07-29T04:13:21;13.27;;;3.00;;
53871;SDS011;39787;53.174;5.798;2023-07-29T04:14:22;10.07;;;3.23;;
53871;SDS011;39787;53.174;5.798;2023-07-29T04:15:22;11.77;;;3.20;;
53871;SDS011;39787;53.174;5.798;2023-07-29T04:16:22;6.57;;;2.73;;
53871;SDS011;39787;53.174;5.798;2023-07-29T04:17:23;10.57;;;2.77;;
53871;SDS011;39787;53.174;5.798;2023-07-29T04:18:23;11.10;;;2.90;;
53871;SDS011;39787;53.174;5.798;2023-07-29T04:19:24;8.60;;;2.70;;
53871;SDS011;39787;53.174;5.798;2023-07-29T04:20:24;4.63;;;2.60;;
53871;SDS011;39787;53.174;5.798;2023-07-29T04:21:25;14.03;;;2.90;;
53871;SDS011;39787;53.174;5.798;2023-07-29T04:22:26;4.67;;;2.27;;
53871;SDS011;39787;53.174;5.798;2023-07-29T04:23:26;12.10;;;3.43;;
53871;SDS011;39787;53.174;5.798;2023-07-29T04:24:26;8.93;;;2.90;;
53871;SDS011;39787;53.174;5.798;2023-07-29T04:25:27;9.83;;;2.80;;
53871;SDS011;39787;53.174;5.798;2023-07-29T04:26:28;7.53;;;2.58;;
53871;SDS011;39787;53.174;5.798;2023-07-29T04:27:28;10.50;;;2.50;;
53871;SDS011;39787;53.174;5.798;2023-07-29T04:28:29;12.33;;;2.70;;
53871;SDS011;39787;53.174;5.798;2023-07-29T04:29:29;7.27;;;2.90;;
53871;SDS011;39787;53.174;5.798;2023-07-29T04:30:30;5.80;;;2.60;;
53871;SDS011;39787;53.174;5.798;2023-07-29T04:31:30;7.60;;;2.40;;
53871;SDS011;39787;53.174;5.798;2023-07-29T04:32:31;5.90;;;2.60;;
53871;SDS011;39787;53.174;5.798;2023-07-29T04:33:31;14.00;;;3.33;;
53871;SDS011;39787;53.174;5.798;2023-07-29T04:34:32;6.30;;;2.70;;
53871;SDS011;39787;53.174;5.798;2023-07-29T04:35:32;7.93;;;2.70;;
53871;SDS011;39787;53.174;5.798;2023-07-29T04:36:33;6.60;;;3.17;;
53871;SDS011;39787;53.174;5.798;2023-07-29T04:37:33;8.30;;;2.97;;
53871;SDS011;39787;53.174;5.798;2023-07-29T04:38:34;7.87;;;2.90;;
53871;SDS011;39787;53.174;5.798;2023-07-29T04:39:34;10.67;;;3.23;;
53871;SDS011;39787;53.174;5.798;2023-07-29T04:40:34;11.27;;;3.07;;
53871;SDS011;39787;53.174;5.798;2023-07-29T04:41:35;8.57;;;3.60;;
53871;SDS011;39787;53.174;5.798;2023-07-29T04:42:36;6.43;;;2.80;;
53871;SDS011;39787;53.174;5.798;2023-07-29T04:43:36;13.35;;;3.28;;
53871;SDS011;39787;53.174;5.798;2023-07-29T04:44:37;13.20;;;2.80;;
53871;SDS011;39787;53.174;5.798;2023-07-29T04:45:42;11.93;;;3.30;;
53871;SDS011;39787;53.174;5.798;2023-07-29T04:46:43;9.63;;;3.05;;
53871;SDS011;39787;53.174;5.798;2023-07-29T04:47:43;8.57;;;3.33;;
53871;SDS011;39787;53.174;5.798;2023-07-29T04:48:44;10.37;;;3.17;;
53871;SDS011;39787;53.174;5.798;2023-07-29T04:49:44;5.30;;;2.73;;
53871;SDS011;39787;53.174;5.798;2023-07-29T04:50:45;10.40;;;3.00;;
53871;SDS011;39787;53.174;5.798;2023-07-29T04:51:45;14.47;;;3.40;;
53871;SDS011;39787;53.174;5.798;2023-07-29T04:52:46;10.37;;;2.67;;
53871;SDS011;39787;53.174;5.798;2023-07-29T04:53:46;16.37;;;3.00;;
53871;SDS011;39787;53.174;5.798;2023-07-29T04:54:46;7.03;;;3.03;;
53871;SDS011;39787;53.174;5.798;2023-07-29T04:55:47;8.43;;;3.05;;
53871;SDS011;39787;53.174;5.798;2023-07-29T04:56:48;11.47;;;3.60;;
53871;SDS011;39787;53.174;5.798;2023-07-29T04:57:48;7.80;;;2.73;;
53871;SDS011;39787;53.174;5.798;2023-07-29T04:58:49;8.37;;;2.73;;
53871;SDS011;39787;53.174;5.798;2023-07-29T04:59:49;15.53;;;3.23;;
53871;SDS011;39787;53.174;5.798;2023-07-29T05:00:50;9.07;;;2.80;;
53871;SDS011;39787;53.174;5.798;2023-07-29T05:01:50;11.50;;;3.20;;
53871;SDS011;39787;53.174;5.798;2023-07-29T05:02:51;8.47;;;3.03;;
53871;SDS011;39787;53.174;5.798;2023-07-29T05:03:51;5.33;;;2.80;;
53871;SDS011;39787;53.174;5.798;2023-07-29T05:04:52;11.03;;;3.07;;
53871;SDS011;39787;53.174;5.798;2023-07-29T05:05:52;7.97;;;2.77;;
53871;SDS011;39787;53.174;5.798;2023-07-29T05:06:52;12.40;;;4.03;;
53871;SDS011;39787;53.174;5.798;2023-07-29T05:07:53;10.47;;;3.47;;
53871;SDS011;39787;53.174;5.798;2023-07-29T05:08:53;15.97;;;3.20;;
53871;SDS011;39787;53.174;5.798;2023-07-29T05:09:54;6.27;;;2.93;;
53871;SDS011;39787;53.174;5.798;2023-07-29T05:10:55;8.13;;;2.87;;
53871;SDS011;39787;53.174;5.798;2023-07-29T05:11:55;10.57;;;2.92;;
53871;SDS011;39787;53.174;5.798;2023-07-29T05:12:56;7.37;;;3.10;;
53871;SDS011;39787;53.174;5.798;2023-07-29T05:13:56;8.37;;;3.17;;
53871;SDS011;39787;53.174;5.798;2023-07-29T05:14:57;9.20;;;2.90;;
53871;SDS011;39787;53.174;5.798;2023-07-29T05:15:57;15.73;;;3.73;;
53871;SDS011;39787;53.174;5.798;2023-07-29T05:16:58;11.97;;;2.87;;
53871;SDS011;39787;53.174;5.798;2023-07-29T05:17:58;9.30;;;3.30;;
53871;SDS011;39787;53.174;5.798;2023-07-29T05:18:59;9.97;;;3.90;;
53871;SDS011;39787;53.174;5.798;2023-07-29T05:19:59;9.33;;;3.27;;
53871;SDS011;39787;53.174;5.798;2023-07-29T05:20:59;9.90;;;3.27;;
53871;SDS011;39787;53.174;5.798;2023-07-29T05:22:00;9.43;;;2.93;;
53871;SDS011;39787;53.174;5.798;2023-07-29T05:23:00;11.00;;;3.40;;
53871;SDS011;39787;53.174;5.798;2023-07-29T05:24:01;10.40;;;3.00;;
53871;SDS011;39787;53.174;5.798;2023-07-29T05:25:01;11.70;;;3.43;;
53871;SDS011;39787;53.174;5.798;2023-07-29T05:26:02;10.20;;;3.42;;
53871;SDS011;39787;53.174;5.798;2023-07-29T05:27:03;8.67;;;3.10;;
53871;SDS011;39787;53.174;5.798;2023-07-29T05:28:03;12.17;;;3.43;;
53871;SDS011;39787;53.174;5.798;2023-07-29T05:29:04;17.07;;;4.07;;
53871;SDS011;39787;53.174;5.798;2023-07-29T05:30:04;9.73;;;3.30;;
53871;SDS011;39787;53.174;5.798;2023-07-29T05:31:05;8.27;;;3.20;;
53871;SDS011;39787;53.174;5.798;2023-07-29T05:32:06;7.03;;;3.00;;
53871;SDS011;39787;53.174;5.798;2023-07-29T05:33:07;13.27;;;3.30;;
53871;SDS011;39787;53.174;5.798;2023-07-29T05:34:07;14.10;;;3.50;;
53871;SDS011;39787;53.174;5.798;2023-07-29T05:35:08;15.63;;;4.23;;
53871;SDS011;39787;53.174;5.798;2023-07-29T05:36:08;10.43;;;3.37;;
53871;SDS011;39787;53.174;5.798;2023-07-29T05:37:09;11.67;;;3.60;;
53871;SDS011;39787;53.174;5.798;2023-07-29T05:38:09;12.87;;;3.20;;
53871;SDS011;39787;53.174;5.798;2023-07-29T05:39:10;8.10;;;3.27;;
53871;SDS011;39787;53.174;5.798;2023-07-29T05:40:11;11.27;;;3.10;;
53871;SDS011;39787;53.174;5.798;2023-07-29T05:41:11;14.75;;;4.60;;
53871;SDS011;39787;53.174;5.798;2023-07-29T05:42:12;10.10;;;3.40;;
53871;SDS011;39787;53.174;5.798;2023-07-29T05:43:12;12.00;;;4.10;;
53871;SDS011;39787;53.174;5.798;2023-07-29T05:44:12;14.83;;;3.63;;
53871;SDS011;39787;53.174;5.798;2023-07-29T05:45:13;12.60;;;3.33;;
53871;SDS011;39787;53.174;5.798;2023-07-29T05:46:14;10.77;;;3.60;;
53871;SDS011;39787;53.174;5.798;2023-07-29T05:47:14;10.60;;;3.70;;
53871;SDS011;39787;53.174;5.798;2023-07-29T05:48:15;13.57;;;3.47;;
53871;SDS011;39787;53.174;5.798;2023-07-29T05:49:15;8.10;;;3.53;;
53871;SDS011;39787;53.174;5.798;2023-07-29T05:50:16;15.27;;;3.97;;
53871;SDS011;39787;53.174;5.798;2023-07-29T05:51:16;12.67;;;3.73;;
53871;SDS011;39787;53.174;5.798;2023-07-29T05:52:17;14.50;;;3.90;;
53871;SDS011;39787;53.174;5.798;2023-07-29T05:53:17;11.57;;;4.03;;
53871;SDS011;39787;53.174;5.798;2023-07-29T05:54:18;11.10;;;4.20;;
53871;SDS011;39787;53.174;5.798;2023-07-29T05:55:18;10.20;;;4.10;;
53871;SDS011;39787;53.174;5.798;2023-07-29T05:56:19;9.07;;;3.80;;
53871;SDS011;39787;53.174;5.798;2023-07-29T05:57:19;19.03;;;4.03;;
53871;SDS011;39787;53.174;5.798;2023-07-29T05:58:20;9.87;;;3.53;;
53871;SDS011;39787;53.174;5.798;2023-07-29T05:59:20;8.70;;;3.70;;
53871;SDS011;39787;53.174;5.798;2023-07-29T06:00:21;11.77;;;4.07;;
53871;SDS011;39787;53.174;5.798;2023-07-29T06:01:21;9.87;;;3.93;;
53871;SDS011;39787;53.174;5.798;2023-07-29T06:02:22;18.17;;;4.70;;
53871;SDS011;39787;53.174;5.798;2023-07-29T06:03:22;10.97;;;4.13;;
53871;SDS011;39787;53.174;5.798;2023-07-29T06:04:23;11.07;;;3.77;;
53871;SDS011;39787;53.174;5.798;2023-07-29T06:05:23;14.87;;;4.07;;
53871;SDS011;39787;53.174;5.798;2023-07-29T06:06:24;12.93;;;3.87;;
53871;SDS011;39787;53.174;5.798;2023-07-29T06:07:24;8.73;;;3.90;;
53871;SDS011;39787;53.174;5.798;2023-07-29T06:08:25;11.00;;;3.90;;
53871;SDS011;39787;53.174;5.798;2023-07-29T06:09:25;11.97;;;3.70;;
53871;SDS011;39787;53.174;5.798;2023-07-29T06:10:26;11.90;;;3.67;;
53871;SDS011;39787;53.174;5.798;2023-07-29T06:11:26;12.83;;;3.57;;
53871;SDS011;39787;53.174;5.798;2023-07-29T06:12:27;10.10;;;3.27;;
53871;SDS011;39787;53.174;5.798;2023-07-29T06:13:27;10.23;;;3.70;;
53871;SDS011;39787;53.174;5.798;2023-07-29T06:14:28;11.53;;;3.60;;